createdAt,value
2023-05-29T00:02:02.954Z,99842.00
2023-05-29T00:04:29.387Z,99855.88
2023-05-29T00:06:56.451Z,99851.53
2023-05-29T00:09:22.831Z,99851.25
2023-05-29T00:11:52.955Z,99851.25
2023-05-29T00:14:20.584Z,99863.34
2023-05-29T00:16:51.180Z,99858.84
2023-05-29T00:19:18.012Z,99838.16
2023-05-29T00:21:44.643Z,99858.19
2023-05-29T00:24:11.048Z,99854.28
2023-05-29T00:26:37.510Z,99846.56
2023-05-29T00:29:04.104Z,99837.44
2023-05-29T00:31:33.061Z,99854.97
2023-05-29T00:33:59.517Z,99831.75
2023-05-29T00:36:26.751Z,99849.81
2023-05-29T00:38:53.244Z,99852.75
2023-05-29T00:41:20.457Z,99856.38
2023-05-29T00:43:46.881Z,99868.16
2023-05-29T00:46:15.264Z,99866.31
2023-05-29T00:48:45.336Z,99856.22
2023-05-29T00:51:13.052Z,99865.63
2023-05-29T00:53:43.367Z,99867.44
2023-05-29T00:56:11.000Z,99869.00
2023-05-29T00:58:37.757Z,99865.50
2023-05-29T01:01:04.395Z,99868.69
2023-05-29T01:03:33.245Z,99871.19
2023-05-29T01:06:00.065Z,99858.22
2023-05-29T01:08:26.488Z,99865.88
2023-05-29T01:11:00.195Z,99876.66
2023-05-29T01:13:32.556Z,99865.84
2023-05-29T01:15:59.025Z,99878.06
2023-05-29T01:18:49.005Z,99873.19
2023-05-29T01:21:51.127Z,99873.84
2023-05-29T01:24:47.225Z,99875.66
2023-05-29T01:27:18.473Z,99867.38
2023-05-29T01:29:48.655Z,99859.94
2023-05-29T01:32:15.367Z,99859.91
2023-05-29T01:34:41.829Z,99874.19
2023-05-29T01:37:10.844Z,99864.94
2023-05-29T01:39:37.673Z,99869.53
2023-05-29T01:42:05.862Z,99869.69
2023-05-29T01:44:35.314Z,99858.03
2023-05-29T01:47:03.589Z,99856.19
2023-05-29T01:49:32.359Z,99863.81
2023-05-29T01:52:01.315Z,99873.00
2023-05-29T01:54:27.799Z,99880.75
2023-05-29T01:56:54.248Z,99866.31
2023-05-29T01:59:22.345Z,99871.56
2023-05-29T02:01:49.093Z,99862.72
2023-05-29T02:04:15.800Z,99856.66
2023-05-29T02:06:42.280Z,99863.00
2023-05-29T02:09:08.850Z,99866.06
2023-05-29T02:11:35.255Z,99854.88
2023-05-29T02:14:04.443Z,99847.63
2023-05-29T02:16:34.334Z,99860.00
2023-05-29T02:19:02.370Z,99858.75
2023-05-29T02:21:28.856Z,99867.34
2023-05-29T02:23:55.221Z,99872.44
2023-05-29T02:26:21.720Z,99867.31
2023-05-29T02:28:48.092Z,99856.44
2023-05-29T02:31:14.481Z,99851.13
2023-05-29T02:33:40.879Z,99857.13
2023-05-29T02:36:11.031Z,99858.09
2023-05-29T02:38:37.436Z,99850.16
2023-05-29T02:41:03.843Z,99866.63
2023-05-29T02:43:30.204Z,99872.03
2023-05-29T02:45:56.682Z,99876.00
2023-05-29T02:48:23.324Z,99867.94
2023-05-29T02:50:49.686Z,99881.66
2023-05-29T02:53:16.082Z,99880.00
2023-05-29T02:55:43.723Z,99882.50
2023-05-29T02:58:10.090Z,99879.34
2023-05-29T03:00:36.434Z,99887.28
2023-05-29T03:03:02.914Z,99885.00
2023-05-29T03:05:29.377Z,99893.31
2023-05-29T03:07:56.162Z,99879.06
2023-05-29T03:10:23.067Z,99893.81
2023-05-29T03:12:49.497Z,99887.47
2023-05-29T03:15:16.516Z,99888.28
2023-05-29T03:17:43.013Z,99885.88
2023-05-29T03:20:14.489Z,99892.78
2023-05-29T03:22:41.199Z,99896.44
2023-05-29T03:25:08.963Z,99902.03
2023-05-29T03:27:35.674Z,99887.81
2023-05-29T03:30:10.628Z,99891.09
2023-05-29T03:32:38.167Z,99898.94
2023-05-29T03:35:05.338Z,99893.88
2023-05-29T03:37:31.768Z,99886.97
2023-05-29T03:39:58.483Z,99890.19
2023-05-29T03:42:24.861Z,99890.44
2023-05-29T03:44:52.521Z,99901.63
2023-05-29T03:47:19.129Z,99905.63
2023-05-29T03:49:45.753Z,99888.94
2023-05-29T03:52:12.373Z,99900.69
2023-05-29T03:54:39.040Z,99900.59
2023-05-29T03:57:07.826Z,99911.78
2023-05-29T03:59:34.360Z,99906.25
2023-05-29T04:02:00.893Z,99914.44
2023-05-29T04:04:27.981Z,99922.16
2023-05-29T04:06:54.963Z,99939.03
2023-05-29T04:09:21.355Z,99930.16
2023-05-29T04:11:47.810Z,99933.97
2023-05-29T04:14:14.193Z,99951.22
2023-05-29T04:16:40.685Z,99948.94
2023-05-29T04:19:07.324Z,99945.84
2023-05-29T04:21:33.883Z,99950.66
2023-05-29T04:24:01.711Z,99964.41
2023-05-29T04:26:28.175Z,99970.66
2023-05-29T04:28:58.140Z,99963.88
2023-05-29T04:31:27.265Z,99964.84
2023-05-29T04:33:55.905Z,99972.91
2023-05-29T04:36:26.911Z,99971.25
2023-05-29T04:39:04.709Z,99975.94
2023-05-29T04:41:32.084Z,99991.09
2023-05-29T04:44:00.268Z,99996.91
2023-05-29T04:46:33.023Z,100003.91
2023-05-29T04:48:59.758Z,99993.53
2023-05-29T04:51:26.172Z,99997.47
2023-05-29T04:53:52.720Z,99994.59
2023-05-29T04:56:19.550Z,100004.81
2023-05-29T04:58:47.989Z,99997.81
2023-05-29T05:01:15.332Z,100018.03
2023-05-29T05:03:42.829Z,100016.13
2023-05-29T05:06:10.400Z,100015.44
2023-05-29T05:08:37.619Z,100015.84
2023-05-29T05:11:04.599Z,100028.59
2023-05-29T05:13:31.090Z,100023.50
2023-05-29T05:15:57.564Z,100028.28
2023-05-29T05:18:24.025Z,100026.56
2023-05-29T05:20:58.215Z,100016.16
2023-05-29T05:23:24.801Z,100030.66
2023-05-29T05:25:51.921Z,100017.53
2023-05-29T05:28:18.354Z,100016.34
2023-05-29T05:30:44.844Z,100007.31
2023-05-29T05:33:11.407Z,100005.28
2023-05-29T05:35:38.904Z,100010.41
2023-05-29T05:38:05.581Z,100013.81
2023-05-29T05:40:33.277Z,99984.81
2023-05-29T05:43:08.199Z,99974.25
2023-05-29T05:45:59.796Z,99983.66
2023-05-29T05:48:27.571Z,99958.47
2023-05-29T05:50:54.739Z,99983.16
2023-05-29T05:53:22.375Z,99967.22
2023-05-29T05:55:49.377Z,99960.81
2023-05-29T05:58:16.262Z,99981.81
2023-05-29T06:00:44.331Z,99961.09
2023-05-29T06:03:11.284Z,99979.31
2023-05-29T06:05:53.144Z,99971.47
2023-05-29T06:08:19.945Z,99963.63
2023-05-29T06:10:46.955Z,99992.59
2023-05-29T06:13:14.335Z,100029.06
2023-05-29T06:15:46.601Z,99980.00
2023-05-29T06:18:13.828Z,99985.47
2023-05-29T06:20:41.061Z,99973.41
2023-05-29T06:23:08.761Z,100001.59
2023-05-29T06:25:37.817Z,99978.47
2023-05-29T06:28:06.964Z,100034.75
2023-05-29T06:30:34.431Z,100003.09
2023-05-29T06:33:06.741Z,99996.09
2023-05-29T06:35:35.318Z,100036.53
2023-05-29T06:38:01.778Z,100035.81
2023-05-29T06:40:28.257Z,100031.88
2023-05-29T06:42:55.340Z,100042.38
2023-05-29T06:45:35.995Z,100041.22
2023-05-29T06:48:02.622Z,100038.16
2023-05-29T06:50:29.173Z,100030.25
2023-05-29T06:53:00.360Z,100040.19
2023-05-29T06:55:28.766Z,100042.81
2023-05-29T06:57:57.812Z,100043.34
2023-05-29T07:00:26.041Z,100039.28
2023-05-29T07:03:20.009Z,100041.34
2023-05-29T07:05:46.885Z,100048.75
2023-05-29T07:08:13.280Z,100048.00
2023-05-29T07:10:39.796Z,100057.81
2023-05-29T07:13:07.313Z,100041.22
2023-05-29T07:15:34.492Z,100035.31
2023-05-29T07:18:01.500Z,100042.00
2023-05-29T07:20:28.921Z,100039.88
2023-05-29T07:22:59.133Z,100046.69
2023-05-29T07:25:27.198Z,100047.56
2023-05-29T07:27:53.600Z,100052.03
2023-05-29T07:30:20.021Z,100046.53
2023-05-29T07:32:46.861Z,100044.38
2023-05-29T07:35:13.339Z,100048.34
2023-05-29T07:37:39.814Z,100050.38
2023-05-29T07:40:06.868Z,100046.81
2023-05-29T07:43:09.493Z,100050.38
2023-05-29T07:45:56.449Z,100050.16
2023-05-29T07:48:23.746Z,100051.50
2023-05-29T07:50:52.950Z,100051.88
2023-05-29T07:53:19.478Z,100055.66
2023-05-29T07:55:47.512Z,100060.53
2023-05-29T07:58:14.258Z,100055.69
2023-05-29T08:00:41.054Z,100052.53
2023-05-29T08:03:09.525Z,100060.09
2023-05-29T08:05:54.426Z,100053.44
2023-05-29T08:08:21.671Z,100056.47
2023-05-29T08:10:48.042Z,100055.81
2023-05-29T08:13:14.451Z,100056.19
2023-05-29T08:15:43.767Z,100043.31
2023-05-29T08:18:10.194Z,100042.50
2023-05-29T08:20:36.691Z,100045.91
2023-05-29T08:23:03.214Z,100046.97
2023-05-29T08:25:29.593Z,100045.66
2023-05-29T08:27:56.097Z,100042.00
2023-05-29T08:30:22.876Z,100025.94
2023-05-29T08:32:51.216Z,100035.31
2023-05-29T08:35:17.697Z,100037.34
2023-05-29T08:37:44.453Z,100030.31
2023-05-29T08:40:11.945Z,100037.34
2023-05-29T08:42:46.790Z,100036.69
2023-05-29T08:45:15.543Z,100037.00
2023-05-29T08:47:44.368Z,100038.06
2023-05-29T08:50:14.346Z,100036.69
2023-05-29T08:52:41.669Z,100042.38
2023-05-29T08:55:08.390Z,100034.19
2023-05-29T08:57:35.413Z,100040.34
2023-05-29T09:00:02.231Z,100034.63
2023-05-29T09:02:28.681Z,100033.78
2023-05-29T09:04:55.315Z,100030.88
2023-05-29T09:07:22.389Z,100034.88
2023-05-29T09:09:49.468Z,100037.91
2023-05-29T09:12:17.966Z,100027.94
2023-05-29T09:14:46.158Z,100038.31
2023-05-29T09:17:13.623Z,100033.47
2023-05-29T09:19:41.593Z,100030.44
2023-05-29T09:22:11.031Z,100039.63
2023-05-29T09:24:39.462Z,100030.03
2023-05-29T09:27:06.339Z,100035.34
2023-05-29T09:29:33.868Z,100037.63
2023-05-29T09:32:04.201Z,100037.59
2023-05-29T09:34:32.235Z,100031.97
2023-05-29T09:37:09.450Z,100030.94
2023-05-29T09:39:54.528Z,100032.72
2023-05-29T09:42:22.750Z,100026.03
2023-05-29T09:44:54.703Z,100025.13
2023-05-29T09:47:22.701Z,100024.50
2023-05-29T09:49:49.102Z,100025.41
2023-05-29T09:52:16.710Z,100021.91
2023-05-29T09:54:47.441Z,100020.91
2023-05-29T09:57:15.805Z,100024.91
2023-05-29T09:59:45.993Z,100027.97
2023-05-29T10:02:14.802Z,100024.72
2023-05-29T10:04:41.535Z,100026.69
2023-05-29T10:07:17.305Z,100029.09
2023-05-29T10:09:49.240Z,100021.38
2023-05-29T10:12:21.260Z,100028.06
2023-05-29T10:14:50.984Z,100028.66
2023-05-29T10:17:23.873Z,100023.25
2023-05-29T10:19:51.722Z,100018.97
2023-05-29T10:22:21.625Z,100017.06
2023-05-29T10:24:51.578Z,100018.50
2023-05-29T10:27:19.007Z,100016.69
2023-05-29T10:29:49.952Z,100016.19
2023-05-29T10:32:33.709Z,100024.28
2023-05-29T10:35:03.426Z,100024.28
2023-05-29T10:37:51.832Z,100022.75
2023-05-29T10:40:24.443Z,100025.59
2023-05-29T10:42:55.477Z,100021.94
2023-05-29T10:45:33.690Z,100013.53
2023-05-29T10:48:09.421Z,100014.03
2023-05-29T10:50:36.714Z,100007.50
2023-05-29T10:53:03.276Z,100000.97
2023-05-29T10:55:37.091Z,100003.31
2023-05-29T10:58:13.634Z,100011.25
2023-05-29T11:00:43.715Z,100002.00
2023-05-29T11:03:11.739Z,100001.84
2023-05-29T11:06:20.849Z,99998.97
2023-05-29T11:08:57.982Z,100000.09
2023-05-29T11:11:32.399Z,100004.91
2023-05-29T11:14:03.988Z,100006.59
2023-05-29T11:16:33.500Z,100005.19
2023-05-29T11:19:12.940Z,99997.44
2023-05-29T11:21:55.980Z,99992.06
2023-05-29T11:24:27.096Z,99988.97
2023-05-29T11:26:55.452Z,99984.44
2023-05-29T11:29:28.998Z,99989.69
2023-05-29T11:32:08.965Z,99989.72
2023-05-29T11:34:40.055Z,99987.66
2023-05-29T11:37:06.970Z,99989.50
2023-05-29T11:39:39.437Z,99991.56
2023-05-29T11:42:07.503Z,99983.06
2023-05-29T11:44:33.882Z,99980.78
2023-05-29T11:47:04.944Z,99978.53
2023-05-29T11:49:34.177Z,99973.34
2023-05-29T11:52:18.205Z,99980.81
2023-05-29T11:54:49.592Z,99963.78
2023-05-29T11:57:20.724Z,99968.16
2023-05-29T11:59:48.177Z,99978.34
2023-05-29T12:02:15.202Z,99968.34
2023-05-29T12:04:41.919Z,99966.50
2023-05-29T12:07:19.134Z,99970.25
2023-05-29T12:09:45.508Z,99964.19
2023-05-29T12:12:11.890Z,99961.50
2023-05-29T12:14:38.249Z,99970.66
2023-05-29T12:17:06.040Z,99975.66
2023-05-29T12:19:32.538Z,99971.47
2023-05-29T12:21:59.046Z,99965.91
2023-05-29T12:24:32.164Z,99961.75
2023-05-29T12:27:08.450Z,99960.91
2023-05-29T12:29:34.928Z,99962.97
2023-05-29T12:32:01.588Z,99962.75
2023-05-29T12:34:37.108Z,99960.06
2023-05-29T12:37:14.252Z,99959.63
2023-05-29T12:39:41.423Z,99960.25
2023-05-29T12:42:08.491Z,99958.38
2023-05-29T12:44:35.819Z,99967.75
2023-05-29T12:47:02.287Z,99957.56
2023-05-29T12:49:30.238Z,99966.06
2023-05-29T12:52:06.449Z,99960.88
2023-05-29T12:54:32.863Z,99964.00
2023-05-29T12:57:01.985Z,99961.09
2023-05-29T12:59:28.379Z,99958.41
2023-05-29T13:01:54.799Z,99957.53
2023-05-29T13:04:21.173Z,99959.63
2023-05-29T13:06:47.580Z,99953.41
2023-05-29T13:09:14.221Z,99962.56
2023-05-29T13:11:40.561Z,99953.00
2023-05-29T13:14:06.943Z,99953.00
2023-05-29T13:16:33.696Z,99951.09
2023-05-29T13:19:00.276Z,99959.00
2023-05-29T13:21:26.683Z,99947.13
2023-05-29T13:23:53.110Z,99945.50
2023-05-29T13:26:19.487Z,99947.13
2023-05-29T13:28:45.877Z,99939.06
2023-05-29T13:31:12.265Z,99941.13
2023-05-29T13:33:38.657Z,99949.22
2023-05-29T13:36:06.211Z,99947.56
2023-05-29T13:38:32.622Z,99945.88
2023-05-29T13:40:59.025Z,99954.41
2023-05-29T13:43:35.770Z,99945.66
2023-05-29T13:46:06.323Z,99944.44
2023-05-29T13:48:36.072Z,99948.59
2023-05-29T13:51:02.565Z,99941.09
2023-05-29T13:53:28.929Z,99945.47
2023-05-29T13:55:55.624Z,99937.13
2023-05-29T13:58:22.208Z,99939.22
2023-05-29T14:00:48.618Z,99934.84
2023-05-29T14:03:15.081Z,99933.00
2023-05-29T14:05:41.600Z,99930.06
2023-05-29T14:08:08.029Z,99923.63
2023-05-29T14:10:34.367Z,99935.88
2023-05-29T14:13:00.781Z,99927.53
2023-05-29T14:15:27.190Z,99925.22
2023-05-29T14:17:53.608Z,99922.13
2023-05-29T14:20:20.091Z,99922.94
2023-05-29T14:22:46.480Z,99919.16
2023-05-29T14:25:12.894Z,99912.94
2023-05-29T14:27:39.265Z,99921.44
2023-05-29T14:30:07.050Z,99921.63
2023-05-29T14:32:33.500Z,99918.69
2023-05-29T14:34:59.976Z,99914.72
2023-05-29T14:37:26.522Z,99918.66
2023-05-29T14:39:52.904Z,99922.00
2023-05-29T14:42:19.342Z,99919.47
2023-05-29T14:44:45.753Z,99917.63
2023-05-29T14:47:12.163Z,99914.25
2023-05-29T14:49:38.916Z,99919.41
2023-05-29T14:52:05.750Z,99922.72
2023-05-29T14:54:32.251Z,99919.97
2023-05-29T14:56:58.665Z,99913.50
2023-05-29T14:59:26.226Z,99910.81
2023-05-29T15:01:54.376Z,99914.50
2023-05-29T15:04:20.788Z,99922.78
2023-05-29T15:06:55.227Z,99919.66
2023-05-29T15:09:25.375Z,99919.63
2023-05-29T15:11:51.713Z,99920.00
2023-05-29T15:14:18.274Z,99916.25
2023-05-29T15:16:45.754Z,99918.31
2023-05-29T15:19:12.228Z,99913.31
2023-05-29T15:21:38.657Z,99921.22
2023-05-29T15:24:05.402Z,99915.34
2023-05-29T15:26:31.810Z,99906.03
2023-05-29T15:28:58.702Z,99911.59
2023-05-29T15:31:26.203Z,99921.72
2023-05-29T15:33:52.641Z,99914.06
2023-05-29T15:36:21.115Z,99912.00
2023-05-29T15:38:47.757Z,99912.34
2023-05-29T15:41:14.192Z,99909.81
2023-05-29T15:43:41.623Z,99912.09
2023-05-29T15:46:09.217Z,99918.50
2023-05-29T15:48:36.007Z,99915.56
2023-05-29T15:51:02.418Z,99912.63
2023-05-29T15:53:28.843Z,99905.91
2023-05-29T15:55:55.687Z,99912.16
2023-05-29T15:58:22.987Z,99911.91
2023-05-29T16:00:49.797Z,99918.31
2023-05-29T16:03:16.480Z,99913.06
2023-05-29T16:05:42.804Z,99911.41
2023-05-29T16:08:09.261Z,99914.47
2023-05-29T16:10:36.437Z,99916.34
2023-05-29T16:13:02.793Z,99925.84
2023-05-29T16:15:29.272Z,99921.66
2023-05-29T16:17:55.697Z,99918.34
2023-05-29T16:20:23.380Z,99917.69
2023-05-29T16:22:49.887Z,99912.69
2023-05-29T16:25:16.666Z,99917.88
2023-05-29T16:27:43.347Z,99912.88
2023-05-29T16:30:10.491Z,99924.03
2023-05-29T16:32:37.318Z,99920.91
2023-05-29T16:35:04.744Z,99920.91
2023-05-29T16:37:31.789Z,99922.56
2023-05-29T16:39:58.362Z,99919.22
2023-05-29T16:42:25.092Z,99915.44
2023-05-29T16:44:53.408Z,99921.41
2023-05-29T16:47:20.514Z,99916.41
2023-05-29T16:49:46.954Z,99917.25
2023-05-29T16:52:15.093Z,99918.66
2023-05-29T16:54:41.764Z,99916.53
2023-05-29T16:57:11.179Z,99915.22
2023-05-29T16:59:38.456Z,99914.41
2023-05-29T17:02:05.922Z,99919.31
2023-05-29T17:04:34.478Z,99924.03
2023-05-29T17:07:01.225Z,99925.47
2023-05-29T17:09:28.194Z,99914.69
2023-05-29T17:11:56.179Z,99924.44
2023-05-29T17:14:23.613Z,99921.38
2023-05-29T17:16:50.728Z,99928.63
2023-05-29T17:19:17.206Z,99917.22
2023-05-29T17:21:44.649Z,99931.03
2023-05-29T17:24:11.239Z,99934.28
2023-05-29T17:26:37.599Z,99921.41
2023-05-29T17:29:03.942Z,99927.81
2023-05-29T17:31:30.377Z,99937.91
2023-05-29T17:33:57.919Z,99933.91
2023-05-29T17:36:24.395Z,99927.25
2023-05-29T17:38:52.884Z,99929.66
2023-05-29T17:41:19.294Z,99939.78
2023-05-29T17:43:45.707Z,99945.16
2023-05-29T17:46:12.362Z,99947.94
2023-05-29T17:48:38.915Z,99942.94
2023-05-29T17:51:05.342Z,99946.34
2023-05-29T17:53:31.775Z,99957.75
2023-05-29T17:55:58.178Z,99955.63
2023-05-29T17:58:24.699Z,99955.97
2023-05-29T18:00:53.884Z,99953.47
2023-05-29T18:03:20.329Z,99956.91
2023-05-29T18:05:46.771Z,99962.00
2023-05-29T18:08:13.124Z,99955.63
2023-05-29T18:10:39.557Z,99959.72
2023-05-29T18:13:06.001Z,99955.06
2023-05-29T18:15:32.431Z,99954.25
2023-05-29T18:17:58.844Z,99958.31
2023-05-29T18:20:30.142Z,99960.22
2023-05-29T18:22:59.496Z,99953.84
2023-05-29T18:25:26.730Z,99949.00
2023-05-29T18:27:53.253Z,99973.00
2023-05-29T18:30:19.668Z,99958.75
2023-05-29T18:32:46.182Z,99967.34
2023-05-29T18:35:12.592Z,99969.72
2023-05-29T18:37:40.048Z,99967.38
2023-05-29T18:40:07.222Z,99971.81
2023-05-29T18:42:33.621Z,99972.16
2023-05-29T18:44:59.957Z,99973.94
2023-05-29T18:47:26.366Z,99983.75
2023-05-29T18:49:55.117Z,99988.09
2023-05-29T18:52:23.343Z,99987.25
2023-05-29T18:54:49.696Z,99985.28
2023-05-29T18:57:16.106Z,99985.16
2023-05-29T18:59:46.153Z,99986.84
2023-05-29T19:02:12.687Z,99993.22
2023-05-29T19:04:39.098Z,99990.84
2023-05-29T19:07:06.282Z,99997.22
2023-05-29T19:09:32.816Z,100002.28
2023-05-29T19:11:59.182Z,100010.84
2023-05-29T19:14:25.803Z,100002.50
2023-05-29T19:16:52.200Z,100010.56
2023-05-29T19:19:19.456Z,100013.44
2023-05-29T19:21:46.384Z,100024.00
2023-05-29T19:24:12.894Z,100026.22
2023-05-29T19:26:42.638Z,100032.28
2023-05-29T19:29:09.425Z,100037.16
2023-05-29T19:31:36.259Z,100041.53
2023-05-29T19:34:03.417Z,100045.69
2023-05-29T19:36:29.939Z,100037.19
2023-05-29T19:38:59.025Z,100049.91
2023-05-29T19:41:26.048Z,100052.59
2023-05-29T19:43:52.441Z,100051.25
2023-05-29T19:46:19.024Z,100061.66
2023-05-29T19:48:45.560Z,100069.22
2023-05-29T19:51:12.626Z,100064.13
2023-05-29T19:53:41.346Z,100074.56
2023-05-29T19:56:08.372Z,100077.59
2023-05-29T19:58:34.729Z,100072.69
2023-05-29T20:01:01.586Z,100073.00
2023-05-29T20:03:30.486Z,100074.50
2023-05-29T20:05:57.294Z,100085.22
2023-05-29T20:08:23.677Z,100088.75
2023-05-29T20:10:58.093Z,100092.44
2023-05-29T20:13:27.498Z,100092.91
2023-05-29T20:15:54.060Z,100095.25
2023-05-29T20:18:20.556Z,100099.59
2023-05-29T20:20:47.949Z,100097.91
2023-05-29T20:23:14.526Z,100100.25
2023-05-29T20:25:41.162Z,100111.13
2023-05-29T20:28:08.233Z,100104.94
2023-05-29T20:30:34.750Z,100121.66
2023-05-29T20:33:01.173Z,100112.97
2023-05-29T20:35:27.584Z,100113.97
2023-05-29T20:37:53.977Z,100125.00
2023-05-29T20:40:21.422Z,100119.63
2023-05-29T20:42:48.445Z,100125.31
2023-05-29T20:45:15.614Z,100135.00
2023-05-29T20:47:44.905Z,100133.13
2023-05-29T20:50:15.088Z,100127.09
2023-05-29T20:52:41.504Z,100131.56
2023-05-29T20:55:08.314Z,100135.75
2023-05-29T20:57:34.701Z,100128.34
2023-05-29T21:00:01.476Z,100125.63
2023-05-29T21:02:27.920Z,100135.09
2023-05-29T21:04:54.326Z,100141.06
2023-05-29T21:07:20.727Z,100139.59
2023-05-29T21:09:47.091Z,100145.09
2023-05-29T21:12:13.676Z,100136.03
2023-05-29T21:14:40.134Z,100139.91
2023-05-29T21:17:06.849Z,100145.94
2023-05-29T21:19:33.218Z,100136.34
2023-05-29T21:21:59.681Z,100146.88
2023-05-29T21:24:26.651Z,100150.03
2023-05-29T21:26:53.053Z,100143.31
2023-05-29T21:29:19.416Z,100151.50
2023-05-29T21:31:46.262Z,100149.19
2023-05-29T21:34:12.682Z,100145.25
2023-05-29T21:36:39.373Z,100139.53
2023-05-29T21:39:06.342Z,100146.78
2023-05-29T21:41:32.951Z,100145.66
2023-05-29T21:43:59.292Z,100146.13
2023-05-29T21:46:25.724Z,100151.84
2023-05-29T21:48:52.106Z,100153.97
2023-05-29T21:51:18.539Z,100158.16
2023-05-29T21:53:44.878Z,100159.84
2023-05-29T21:56:11.594Z,100166.59
2023-05-29T21:58:37.934Z,100161.94
2023-05-29T22:01:04.496Z,100173.09
2023-05-29T22:03:31.208Z,100181.25
2023-05-29T22:05:57.597Z,100177.06
2023-05-29T22:08:24.269Z,100172.47
2023-05-29T22:10:51.949Z,100183.47
2023-05-29T22:13:20.570Z,100183.41
2023-05-29T22:15:47.211Z,100194.03
2023-05-29T22:18:13.565Z,100190.78
2023-05-29T22:20:40.004Z,100190.19
2023-05-29T22:23:16.875Z,100187.50
2023-05-29T22:25:45.052Z,100186.78
2023-05-29T22:28:12.977Z,100185.81
2023-05-29T22:30:39.296Z,100177.16
2023-05-29T22:33:05.687Z,100180.31
2023-05-29T22:35:32.601Z,100182.84
2023-05-29T22:37:59.523Z,100182.50
2023-05-29T22:40:25.850Z,100175.66
2023-05-29T22:42:52.197Z,100172.50
2023-05-29T22:45:18.546Z,100178.84
2023-05-29T22:47:45.553Z,100181.28
2023-05-29T22:50:12.601Z,100178.84
2023-05-29T22:52:39.683Z,100172.28
2023-05-29T22:55:06.582Z,100180.22
2023-05-29T22:57:33.699Z,100176.53
2023-05-29T23:00:00.382Z,100177.09
2023-05-29T23:02:28.420Z,100188.81
2023-05-29T23:04:55.837Z,100185.53
2023-05-29T23:07:22.817Z,100184.22
2023-05-29T23:09:49.225Z,100185.78
2023-05-29T23:12:15.580Z,100195.25
2023-05-29T23:14:41.960Z,100189.50
2023-05-29T23:17:08.429Z,100188.56
2023-05-29T23:19:35.570Z,100196.03
2023-05-29T23:22:02.899Z,100198.00
2023-05-29T23:24:29.420Z,100197.06
2023-05-29T23:26:56.114Z,100212.38
2023-05-29T23:29:22.955Z,100222.13
2023-05-29T23:31:49.608Z,100217.09
2023-05-29T23:34:16.748Z,100219.47
2023-05-29T23:36:46.653Z,100209.50
2023-05-29T23:39:14.081Z,100214.78
2023-05-29T23:41:41.908Z,100221.72
2023-05-29T23:44:09.137Z,100223.69
2023-05-29T23:46:36.476Z,100233.84
2023-05-29T23:49:04.233Z,100219.25
2023-05-29T23:51:31.315Z,100226.78
2023-05-29T23:53:58.565Z,100222.72
2023-05-29T23:56:26.299Z,100224.16
2023-05-29T23:58:53.425Z,100224.03
